sensor_id;sensor_type;location;lat;lon;timestamp;P1;durP1;ratioP1;P2;durP2;ratioP2
4873;SDS011;2451;49.970;9.068;2023-08-17T00:01:23;7.47;;;4.18;;
4873;SDS011;2451;49.970;9.068;2023-08-17T00:03:48;8.90;;;4.80;;
4873;SDS011;2451;49.970;9.068;2023-08-17T00:06:14;6.85;;;5.00;;
4873;SDS011;2451;49.970;9.068;2023-08-17T00:08:39;8.30;;;4.68;;
4873;SDS011;2451;49.970;9.068;2023-08-17T00:11:05;8.13;;;4.75;;
4873;SDS011;2451;49.970;9.068;2023-08-17T00:13:30;7.18;;;4.47;;
4873;SDS011;2451;49.970;9.068;2023-08-17T00:15:56;7.38;;;4.63;;
4873;SDS011;2451;49.970;9.068;2023-08-17T00:18:22;7.60;;;4.78;;
4873;SDS011;2451;49.970;9.068;2023-08-17T00:20:47;8.85;;;5.03;;
4873;SDS011;2451;49.970;9.068;2023-08-17T00:23:13;7.70;;;3.45;;
4873;SDS011;2451;49.970;9.068;2023-08-17T00:25:38;2.92;;;2.05;;
4873;SDS011;2451;49.970;9.068;2023-08-17T00:28:04;3.83;;;2.00;;
4873;SDS011;2451;49.970;9.068;2023-08-17T00:30:30;3.65;;;2.45;;
4873;SDS011;2451;49.970;9.068;2023-08-17T00:32:55;3.40;;;2.17;;
4873;SDS011;2451;49.970;9.068;2023-08-17T00:35:21;3.70;;;2.28;;
4873;SDS011;2451;49.970;9.068;2023-08-17T00:37:46;6.30;;;2.63;;
4873;SDS011;2451;49.970;9.068;2023-08-17T00:40:12;4.78;;;2.30;;
4873;SDS011;2451;49.970;9.068;2023-08-17T00:42:38;4.22;;;2.28;;
4873;SDS011;2451;49.970;9.068;2023-08-17T00:45:03;4.38;;;2.38;;
4873;SDS011;2451;49.970;9.068;2023-08-17T00:47:29;5.32;;;2.30;;
4873;SDS011;2451;49.970;9.068;2023-08-17T00:49:55;5.30;;;2.30;;
4873;SDS011;2451;49.970;9.068;2023-08-17T00:52:23;3.30;;;2.10;;
4873;SDS011;2451;49.970;9.068;2023-08-17T00:54:48;6.65;;;2.33;;
4873;SDS011;2451;49.970;9.068;2023-08-17T00:57:14;5.32;;;2.22;;
4873;SDS011;2451;49.970;9.068;2023-08-17T00:59:40;5.53;;;3.03;;
4873;SDS011;2451;49.970;9.068;2023-08-17T01:02:05;8.00;;;3.10;;
4873;SDS011;2451;49.970;9.068;2023-08-17T01:04:32;6.15;;;2.83;;
4873;SDS011;2451;49.970;9.068;2023-08-17T01:06:57;5.32;;;2.80;;
4873;SDS011;2451;49.970;9.068;2023-08-17T01:09:23;6.00;;;3.03;;
4873;SDS011;2451;49.970;9.068;2023-08-17T01:11:53;5.13;;;3.00;;
4873;SDS011;2451;49.970;9.068;2023-08-17T01:14:27;5.93;;;2.90;;
4873;SDS011;2451;49.970;9.068;2023-08-17T01:17:15;7.88;;;3.08;;
4873;SDS011;2451;49.970;9.068;2023-08-17T01:19:47;5.20;;;2.78;;
4873;SDS011;2451;49.970;9.068;2023-08-17T01:22:14;4.68;;;2.90;;
4873;SDS011;2451;49.970;9.068;2023-08-17T01:24:43;4.88;;;3.10;;
4873;SDS011;2451;49.970;9.068;2023-08-17T01:27:08;4.50;;;2.97;;
4873;SDS011;2451;49.970;9.068;2023-08-17T01:29:34;5.80;;;3.50;;
4873;SDS011;2451;49.970;9.068;2023-08-17T01:32:10;6.35;;;3.28;;
4873;SDS011;2451;49.970;9.068;2023-08-17T01:34:48;7.07;;;3.83;;
4873;SDS011;2451;49.970;9.068;2023-08-17T01:37:23;5.40;;;3.63;;
4873;SDS011;2451;49.970;9.068;2023-08-17T01:39:53;7.03;;;3.58;;
4873;SDS011;2451;49.970;9.068;2023-08-17T01:42:21;8.15;;;3.90;;
4873;SDS011;2451;49.970;9.068;2023-08-17T01:44:48;7.38;;;4.10;;
4873;SDS011;2451;49.970;9.068;2023-08-17T01:47:14;8.13;;;4.50;;
4873;SDS011;2451;49.970;9.068;2023-08-17T01:49:39;6.63;;;4.25;;
4873;SDS011;2451;49.970;9.068;2023-08-17T01:52:05;7.95;;;3.92;;
4873;SDS011;2451;49.970;9.068;2023-08-17T01:54:31;5.78;;;3.60;;
4873;SDS011;2451;49.970;9.068;2023-08-17T01:56:56;7.13;;;4.15;;
4873;SDS011;2451;49.970;9.068;2023-08-17T01:59:22;9.25;;;4.35;;
4873;SDS011;2451;49.970;9.068;2023-08-17T02:01:47;7.63;;;4.07;;
4873;SDS011;2451;49.970;9.068;2023-08-17T02:04:13;7.35;;;4.53;;
4873;SDS011;2451;49.970;9.068;2023-08-17T02:06:39;8.15;;;4.28;;
4873;SDS011;2451;49.970;9.068;2023-08-17T02:09:05;6.45;;;4.70;;
4873;SDS011;2451;49.970;9.068;2023-08-17T02:11:30;9.20;;;4.45;;
4873;SDS011;2451;49.970;9.068;2023-08-17T02:13:56;8.88;;;4.45;;
4873;SDS011;2451;49.970;9.068;2023-08-17T02:16:21;9.25;;;4.93;;
4873;SDS011;2451;49.970;9.068;2023-08-17T02:18:47;7.40;;;4.32;;
4873;SDS011;2451;49.970;9.068;2023-08-17T02:21:12;7.75;;;4.60;;
4873;SDS011;2451;49.970;9.068;2023-08-17T02:23:38;7.68;;;4.45;;
4873;SDS011;2451;49.970;9.068;2023-08-17T02:26:03;6.20;;;4.50;;
4873;SDS011;2451;49.970;9.068;2023-08-17T02:28:29;8.93;;;4.70;;
4873;SDS011;2451;49.970;9.068;2023-08-17T02:30:55;7.25;;;4.70;;
4873;SDS011;2451;49.970;9.068;2023-08-17T02:33:22;7.90;;;4.38;;
4873;SDS011;2451;49.970;9.068;2023-08-17T02:35:51;9.23;;;4.40;;
4873;SDS011;2451;49.970;9.068;2023-08-17T02:38:17;7.05;;;4.50;;
4873;SDS011;2451;49.970;9.068;2023-08-17T02:40:43;7.15;;;4.40;;
4873;SDS011;2451;49.970;9.068;2023-08-17T02:43:09;7.82;;;4.90;;
4873;SDS011;2451;49.970;9.068;2023-08-17T02:45:34;8.32;;;4.90;;
4873;SDS011;2451;49.970;9.068;2023-08-17T02:48:00;9.05;;;5.53;;
4873;SDS011;2451;49.970;9.068;2023-08-17T02:50:26;8.20;;;5.28;;
4873;SDS011;2451;49.970;9.068;2023-08-17T02:52:51;10.00;;;6.22;;
4873;SDS011;2451;49.970;9.068;2023-08-17T02:55:17;10.88;;;6.63;;
4873;SDS011;2451;49.970;9.068;2023-08-17T02:57:42;11.90;;;5.50;;
4873;SDS011;2451;49.970;9.068;2023-08-17T03:00:08;8.10;;;6.22;;
4873;SDS011;2451;49.970;9.068;2023-08-17T03:02:34;16.42;;;7.97;;
4873;SDS011;2451;49.970;9.068;2023-08-17T03:04:59;11.63;;;8.57;;
4873;SDS011;2451;49.970;9.068;2023-08-17T03:07:25;15.55;;;9.65;;
4873;SDS011;2451;49.970;9.068;2023-08-17T03:09:51;15.10;;;10.32;;
4873;SDS011;2451;49.970;9.068;2023-08-17T03:12:16;15.63;;;9.40;;
4873;SDS011;2451;49.970;9.068;2023-08-17T03:14:42;17.98;;;10.30;;
4873;SDS011;2451;49.970;9.068;2023-08-17T03:17:07;14.68;;;9.85;;
4873;SDS011;2451;49.970;9.068;2023-08-17T03:19:33;14.52;;;10.43;;
4873;SDS011;2451;49.970;9.068;2023-08-17T03:21:58;16.13;;;10.07;;
4873;SDS011;2451;49.970;9.068;2023-08-17T03:24:24;10.73;;;8.98;;
4873;SDS011;2451;49.970;9.068;2023-08-17T03:26:49;13.88;;;9.18;;
4873;SDS011;2451;49.970;9.068;2023-08-17T03:29:15;13.35;;;8.50;;
4873;SDS011;2451;49.970;9.068;2023-08-17T03:31:40;10.63;;;8.18;;
4873;SDS011;2451;49.970;9.068;2023-08-17T03:34:06;14.25;;;8.82;;
4873;SDS011;2451;49.970;9.068;2023-08-17T03:36:31;13.07;;;8.20;;
4873;SDS011;2451;49.970;9.068;2023-08-17T03:38:57;9.32;;;7.65;;
4873;SDS011;2451;49.970;9.068;2023-08-17T03:41:22;11.00;;;8.20;;
4873;SDS011;2451;49.970;9.068;2023-08-17T03:43:49;12.75;;;7.93;;
4873;SDS011;2451;49.970;9.068;2023-08-17T03:46:15;11.65;;;8.35;;
4873;SDS011;2451;49.970;9.068;2023-08-17T03:48:40;13.15;;;8.75;;
4873;SDS011;2451;49.970;9.068;2023-08-17T03:51:06;12.75;;;8.38;;
4873;SDS011;2451;49.970;9.068;2023-08-17T03:53:31;11.98;;;8.43;;
4873;SDS011;2451;49.970;9.068;2023-08-17T03:55:57;10.27;;;7.30;;
4873;SDS011;2451;49.970;9.068;2023-08-17T03:58:22;11.48;;;8.15;;
4873;SDS011;2451;49.970;9.068;2023-08-17T04:00:51;12.63;;;8.70;;
4873;SDS011;2451;49.970;9.068;2023-08-17T04:03:17;13.90;;;9.02;;
4873;SDS011;2451;49.970;9.068;2023-08-17T04:05:44;11.35;;;8.38;;
4873;SDS011;2451;49.970;9.068;2023-08-17T04:08:09;9.45;;;7.75;;
4873;SDS011;2451;49.970;9.068;2023-08-17T04:10:35;11.82;;;8.25;;
4873;SDS011;2451;49.970;9.068;2023-08-17T04:13:00;15.38;;;8.73;;
4873;SDS011;2451;49.970;9.068;2023-08-17T04:15:26;12.95;;;8.70;;
4873;SDS011;2451;49.970;9.068;2023-08-17T04:17:51;11.95;;;8.45;;
4873;SDS011;2451;49.970;9.068;2023-08-17T04:20:17;11.05;;;8.15;;
4873;SDS011;2451;49.970;9.068;2023-08-17T04:22:43;13.88;;;8.57;;
4873;SDS011;2451;49.970;9.068;2023-08-17T04:25:09;11.00;;;8.10;;
4873;SDS011;2451;49.970;9.068;2023-08-17T04:27:34;11.32;;;8.70;;
4873;SDS011;2451;49.970;9.068;2023-08-17T04:30:00;14.05;;;9.02;;
4873;SDS011;2451;49.970;9.068;2023-08-17T04:32:26;12.55;;;8.88;;
4873;SDS011;2451;49.970;9.068;2023-08-17T04:34:52;13.55;;;8.45;;
4873;SDS011;2451;49.970;9.068;2023-08-17T04:37:17;15.25;;;9.00;;
4873;SDS011;2451;49.970;9.068;2023-08-17T04:39:43;13.38;;;8.23;;
4873;SDS011;2451;49.970;9.068;2023-08-17T04:42:09;12.63;;;7.53;;
4873;SDS011;2451;49.970;9.068;2023-08-17T04:44:35;11.05;;;8.18;;
4873;SDS011;2451;49.970;9.068;2023-08-17T04:47:01;11.35;;;8.50;;
4873;SDS011;2451;49.970;9.068;2023-08-17T04:49:26;12.70;;;7.93;;
4873;SDS011;2451;49.970;9.068;2023-08-17T04:51:52;14.18;;;7.65;;
4873;SDS011;2451;49.970;9.068;2023-08-17T04:54:18;12.45;;;8.15;;
4873;SDS011;2451;49.970;9.068;2023-08-17T04:56:44;12.32;;;7.60;;
4873;SDS011;2451;49.970;9.068;2023-08-17T04:59:09;17.40;;;8.15;;
4873;SDS011;2451;49.970;9.068;2023-08-17T05:01:35;11.30;;;7.80;;
4873;SDS011;2451;49.970;9.068;2023-08-17T05:04:02;10.65;;;7.55;;
4873;SDS011;2451;49.970;9.068;2023-08-17T05:06:28;11.63;;;7.45;;
4873;SDS011;2451;49.970;9.068;2023-08-17T05:08:55;9.73;;;6.90;;
4873;SDS011;2451;49.970;9.068;2023-08-17T05:11:21;9.65;;;6.78;;
4873;SDS011;2451;49.970;9.068;2023-08-17T05:13:46;10.55;;;6.38;;
4873;SDS011;2451;49.970;9.068;2023-08-17T05:16:12;11.30;;;8.05;;
4873;SDS011;2451;49.970;9.068;2023-08-17T05:18:37;11.70;;;8.25;;
4873;SDS011;2451;49.970;9.068;2023-08-17T05:21:03;13.45;;;7.95;;
4873;SDS011;2451;49.970;9.068;2023-08-17T05:23:29;11.45;;;8.05;;
4873;SDS011;2451;49.970;9.068;2023-08-17T05:25:54;13.82;;;7.75;;
4873;SDS011;2451;49.970;9.068;2023-08-17T05:28:20;11.15;;;8.00;;
4873;SDS011;2451;49.970;9.068;2023-08-17T05:30:46;9.18;;;7.25;;
4873;SDS011;2451;49.970;9.068;2023-08-17T05:33:11;11.73;;;7.65;;
4873;SDS011;2451;49.970;9.068;2023-08-17T05:35:37;10.25;;;7.50;;
4873;SDS011;2451;49.970;9.068;2023-08-17T05:38:03;10.43;;;7.32;;
4873;SDS011;2451;49.970;9.068;2023-08-17T05:40:29;13.43;;;7.70;;
4873;SDS011;2451;49.970;9.068;2023-08-17T05:42:55;11.40;;;8.02;;
4873;SDS011;2451;49.970;9.068;2023-08-17T05:45:21;10.80;;;7.38;;
4873;SDS011;2451;49.970;9.068;2023-08-17T05:47:46;15.38;;;7.80;;
4873;SDS011;2451;49.970;9.068;2023-08-17T05:50:12;13.85;;;7.47;;
4873;SDS011;2451;49.970;9.068;2023-08-17T05:52:37;12.82;;;7.35;;
4873;SDS011;2451;49.970;9.068;2023-08-17T05:55:03;13.32;;;7.32;;
4873;SDS011;2451;49.970;9.068;2023-08-17T05:57:28;12.10;;;7.30;;
4873;SDS011;2451;49.970;9.068;2023-08-17T05:59:54;12.65;;;7.32;;
4873;SDS011;2451;49.970;9.068;2023-08-17T06:02:20;11.35;;;7.57;;
4873;SDS011;2451;49.970;9.068;2023-08-17T06:04:47;12.32;;;7.22;;
4873;SDS011;2451;49.970;9.068;2023-08-17T06:07:12;13.55;;;7.65;;
4873;SDS011;2451;49.970;9.068;2023-08-17T06:09:38;12.98;;;7.85;;
4873;SDS011;2451;49.970;9.068;2023-08-17T06:12:03;14.23;;;8.52;;
4873;SDS011;2451;49.970;9.068;2023-08-17T06:14:29;11.23;;;7.63;;
4873;SDS011;2451;49.970;9.068;2023-08-17T06:16:55;13.13;;;7.45;;
4873;SDS011;2451;49.970;9.068;2023-08-17T06:19:20;10.38;;;7.72;;
4873;SDS011;2451;49.970;9.068;2023-08-17T06:21:46;9.75;;;7.28;;
4873;SDS011;2451;49.970;9.068;2023-08-17T06:24:11;15.40;;;7.43;;
4873;SDS011;2451;49.970;9.068;2023-08-17T06:26:37;12.20;;;7.80;;
4873;SDS011;2451;49.970;9.068;2023-08-17T06:29:03;11.48;;;6.22;;
4873;SDS011;2451;49.970;9.068;2023-08-17T06:31:28;9.85;;;5.95;;
4873;SDS011;2451;49.970;9.068;2023-08-17T06:33:55;9.68;;;5.50;;
4873;SDS011;2451;49.970;9.068;2023-08-17T06:36:20;7.88;;;5.82;;
4873;SDS011;2451;49.970;9.068;2023-08-17T06:38:46;8.25;;;5.55;;
4873;SDS011;2451;49.970;9.068;2023-08-17T06:41:12;7.57;;;5.25;;
4873;SDS011;2451;49.970;9.068;2023-08-17T06:43:38;6.55;;;4.95;;
4873;SDS011;2451;49.970;9.068;2023-08-17T06:46:03;7.25;;;5.20;;
4873;SDS011;2451;49.970;9.068;2023-08-17T06:48:29;7.85;;;5.53;;
4873;SDS011;2451;49.970;9.068;2023-08-17T06:50:56;8.40;;;6.28;;
4873;SDS011;2451;49.970;9.068;2023-08-17T06:53:22;8.45;;;5.90;;
4873;SDS011;2451;49.970;9.068;2023-08-17T06:55:47;9.00;;;6.72;;
4873;SDS011;2451;49.970;9.068;2023-08-17T06:58:13;8.63;;;6.45;;
4873;SDS011;2451;49.970;9.068;2023-08-17T07:00:38;9.32;;;6.22;;
4873;SDS011;2451;49.970;9.068;2023-08-17T07:03:05;7.78;;;6.07;;
4873;SDS011;2451;49.970;9.068;2023-08-17T07:05:31;8.07;;;6.45;;
4873;SDS011;2451;49.970;9.068;2023-08-17T07:07:57;9.45;;;6.28;;
4873;SDS011;2451;49.970;9.068;2023-08-17T07:10:24;8.85;;;6.53;;
4873;SDS011;2451;49.970;9.068;2023-08-17T07:12:50;8.00;;;6.55;;
4873;SDS011;2451;49.970;9.068;2023-08-17T07:15:15;9.60;;;7.25;;
4873;SDS011;2451;49.970;9.068;2023-08-17T07:17:41;7.80;;;6.20;;
4873;SDS011;2451;49.970;9.068;2023-08-17T07:20:07;8.27;;;6.20;;
4873;SDS011;2451;49.970;9.068;2023-08-17T07:22:33;10.98;;;7.00;;
4873;SDS011;2451;49.970;9.068;2023-08-17T07:24:58;11.05;;;6.45;;
4873;SDS011;2451;49.970;9.068;2023-08-17T07:27:24;8.05;;;6.95;;
4873;SDS011;2451;49.970;9.068;2023-08-17T07:29:50;9.43;;;6.43;;
4873;SDS011;2451;49.970;9.068;2023-08-17T07:32:15;8.20;;;6.40;;
4873;SDS011;2451;49.970;9.068;2023-08-17T07:34:41;9.85;;;6.63;;
4873;SDS011;2451;49.970;9.068;2023-08-17T07:37:06;10.73;;;7.38;;
4873;SDS011;2451;49.970;9.068;2023-08-17T07:39:32;7.68;;;6.82;;
4873;SDS011;2451;49.970;9.068;2023-08-17T07:41:58;10.18;;;6.75;;
4873;SDS011;2451;49.970;9.068;2023-08-17T07:44:24;13.75;;;7.57;;
4873;SDS011;2451;49.970;9.068;2023-08-17T07:46:49;8.00;;;6.85;;
4873;SDS011;2451;49.970;9.068;2023-08-17T07:49:15;8.73;;;7.20;;
4873;SDS011;2451;49.970;9.068;2023-08-17T07:51:40;9.73;;;7.28;;
4873;SDS011;2451;49.970;9.068;2023-08-17T07:54:06;8.18;;;6.45;;
4873;SDS011;2451;49.970;9.068;2023-08-17T07:56:32;9.52;;;7.18;;
4873;SDS011;2451;49.970;9.068;2023-08-17T07:58:58;9.65;;;7.50;;
4873;SDS011;2451;49.970;9.068;2023-08-17T08:01:23;8.00;;;6.85;;
4873;SDS011;2451;49.970;9.068;2023-08-17T08:03:49;9.98;;;6.13;;
4873;SDS011;2451;49.970;9.068;2023-08-17T08:06:15;9.43;;;6.35;;
4873;SDS011;2451;49.970;9.068;2023-08-17T08:08:40;6.72;;;5.40;;
4873;SDS011;2451;49.970;9.068;2023-08-17T08:11:06;6.75;;;5.03;;
4873;SDS011;2451;49.970;9.068;2023-08-17T08:13:32;5.75;;;4.68;;
4873;SDS011;2451;49.970;9.068;2023-08-17T08:16:00;7.35;;;5.25;;
4873;SDS011;2451;49.970;9.068;2023-08-17T08:18:26;5.95;;;4.85;;
4873;SDS011;2451;49.970;9.068;2023-08-17T08:20:51;8.07;;;5.93;;
4873;SDS011;2451;49.970;9.068;2023-08-17T08:23:17;7.93;;;5.57;;
4873;SDS011;2451;49.970;9.068;2023-08-17T08:25:42;7.45;;;5.53;;
4873;SDS011;2451;49.970;9.068;2023-08-17T08:28:08;7.72;;;6.15;;
4873;SDS011;2451;49.970;9.068;2023-08-17T08:30:34;7.32;;;6.28;;
4873;SDS011;2451;49.970;9.068;2023-08-17T08:32:59;7.03;;;6.32;;
4873;SDS011;2451;49.970;9.068;2023-08-17T08:35:25;7.88;;;6.25;;
4873;SDS011;2451;49.970;9.068;2023-08-17T08:37:52;6.60;;;5.82;;
4873;SDS011;2451;49.970;9.068;2023-08-17T08:40:18;7.05;;;5.22;;
4873;SDS011;2451;49.970;9.068;2023-08-17T08:42:46;7.82;;;5.70;;
4873;SDS011;2451;49.970;9.068;2023-08-17T08:45:11;7.80;;;5.95;;
4873;SDS011;2451;49.970;9.068;2023-08-17T08:47:37;7.80;;;5.60;;
4873;SDS011;2451;49.970;9.068;2023-08-17T08:50:04;7.45;;;5.90;;
4873;SDS011;2451;49.970;9.068;2023-08-17T08:53:17;7.85;;;6.60;;
4873;SDS011;2451;49.970;9.068;2023-08-17T08:55:29;9.77;;;7.05;;
4873;SDS011;2451;49.970;9.068;2023-08-17T08:57:59;7.85;;;6.28;;
4873;SDS011;2451;49.970;9.068;2023-08-17T09:00:25;7.68;;;6.22;;
4873;SDS011;2451;49.970;9.068;2023-08-17T09:02:51;8.88;;;6.65;;
4873;SDS011;2451;49.970;9.068;2023-08-17T09:05:18;8.80;;;7.15;;
4873;SDS011;2451;49.970;9.068;2023-08-17T09:07:44;9.55;;;6.45;;
4873;SDS011;2451;49.970;9.068;2023-08-17T09:10:12;9.70;;;6.20;;
4873;SDS011;2451;49.970;9.068;2023-08-17T09:12:39;7.25;;;6.18;;
4873;SDS011;2451;49.970;9.068;2023-08-17T09:15:04;7.30;;;6.28;;
4873;SDS011;2451;49.970;9.068;2023-08-17T09:17:31;8.93;;;6.10;;
4873;SDS011;2451;49.970;9.068;2023-08-17T09:19:59;9.82;;;5.65;;
4873;SDS011;2451;49.970;9.068;2023-08-17T09:22:25;7.45;;;5.30;;
4873;SDS011;2451;49.970;9.068;2023-08-17T09:25:03;10.33;;;5.70;;
4873;SDS011;2451;49.970;9.068;2023-08-17T09:27:29;5.78;;;4.80;;
4873;SDS011;2451;49.970;9.068;2023-08-17T09:30:06;5.28;;;4.32;;
4873;SDS011;2451;49.970;9.068;2023-08-17T09:32:34;6.55;;;5.05;;
4873;SDS011;2451;49.970;9.068;2023-08-17T09:35:00;8.00;;;4.43;;
4873;SDS011;2451;49.970;9.068;2023-08-17T09:37:27;6.15;;;4.53;;
4873;SDS011;2451;49.970;9.068;2023-08-17T09:39:53;5.72;;;4.63;;
4873;SDS011;2451;49.970;9.068;2023-08-17T09:42:19;6.28;;;5.43;;
4873;SDS011;2451;49.970;9.068;2023-08-17T09:44:46;5.88;;;4.97;;
4873;SDS011;2451;49.970;9.068;2023-08-17T09:47:12;5.65;;;4.22;;
4873;SDS011;2451;49.970;9.068;2023-08-17T09:49:37;6.38;;;4.80;;
4873;SDS011;2451;49.970;9.068;2023-08-17T09:52:04;5.40;;;4.50;;
4873;SDS011;2451;49.970;9.068;2023-08-17T09:54:30;5.15;;;4.13;;
4873;SDS011;2451;49.970;9.068;2023-08-17T09:56:57;5.65;;;3.90;;
4873;SDS011;2451;49.970;9.068;2023-08-17T09:59:23;6.22;;;4.57;;
4873;SDS011;2451;49.970;9.068;2023-08-17T10:01:49;5.15;;;3.80;;
4873;SDS011;2451;49.970;9.068;2023-08-17T10:04:18;4.15;;;3.63;;
4873;SDS011;2451;49.970;9.068;2023-08-17T10:06:47;6.32;;;3.88;;
4873;SDS011;2451;49.970;9.068;2023-08-17T10:09:15;5.63;;;3.50;;
4873;SDS011;2451;49.970;9.068;2023-08-17T10:11:44;4.97;;;3.85;;
4873;SDS011;2451;49.970;9.068;2023-08-17T10:14:13;7.80;;;3.80;;
4873;SDS011;2451;49.970;9.068;2023-08-17T10:16:46;8.13;;;4.50;;
4873;SDS011;2451;49.970;9.068;2023-08-17T10:19:33;6.63;;;3.78;;
4873;SDS011;2451;49.970;9.068;2023-08-17T10:22:08;6.25;;;3.80;;
4873;SDS011;2451;49.970;9.068;2023-08-17T10:24:34;6.30;;;3.75;;
4873;SDS011;2451;49.970;9.068;2023-08-17T10:27:03;6.60;;;3.75;;
4873;SDS011;2451;49.970;9.068;2023-08-17T10:29:32;4.18;;;3.78;;
4873;SDS011;2451;49.970;9.068;2023-08-17T10:31:59;5.78;;;3.58;;
4873;SDS011;2451;49.970;9.068;2023-08-17T10:34:26;4.85;;;3.20;;
4873;SDS011;2451;49.970;9.068;2023-08-17T10:36:52;5.38;;;3.70;;
4873;SDS011;2451;49.970;9.068;2023-08-17T10:39:23;13.98;;;3.42;;
4873;SDS011;2451;49.970;9.068;2023-08-17T10:41:51;5.57;;;3.50;;
4873;SDS011;2451;49.970;9.068;2023-08-17T10:44:17;4.00;;;2.90;;
4873;SDS011;2451;49.970;9.068;2023-08-17T10:50:05;3.85;;;3.33;;
4873;SDS011;2451;49.970;9.068;2023-08-17T10:52:35;3.97;;;3.22;;
4873;SDS011;2451;49.970;9.068;2023-08-17T10:55:07;4.35;;;3.38;;
4873;SDS011;2451;49.970;9.068;2023-08-17T10:57:37;4.20;;;3.03;;
4873;SDS011;2451;49.970;9.068;2023-08-17T11:00:19;5.30;;;3.30;;
4873;SDS011;2451;49.970;9.068;2023-08-17T11:02:53;6.22;;;3.08;;
4873;SDS011;2451;49.970;9.068;2023-08-17T11:06:13;3.55;;;3.20;;
4873;SDS011;2451;49.970;9.068;2023-08-17T11:11:01;5.18;;;3.63;;
4873;SDS011;2451;49.970;9.068;2023-08-17T11:13:40;5.85;;;3.30;;
4873;SDS011;2451;49.970;9.068;2023-08-17T11:16:09;4.30;;;3.08;;
4873;SDS011;2451;49.970;9.068;2023-08-17T11:18:36;5.28;;;3.40;;
4873;SDS011;2451;49.970;9.068;2023-08-17T11:21:02;5.03;;;3.50;;
4873;SDS011;2451;49.970;9.068;2023-08-17T11:23:30;5.78;;;3.50;;
4873;SDS011;2451;49.970;9.068;2023-08-17T11:25:57;6.85;;;3.80;;
4873;SDS011;2451;49.970;9.068;2023-08-17T11:28:22;13.05;;;3.53;;
4873;SDS011;2451;49.970;9.068;2023-08-17T11:31:02;4.57;;;3.30;;
4873;SDS011;2451;49.970;9.068;2023-08-17T11:33:29;5.43;;;3.38;;
4873;SDS011;2451;49.970;9.068;2023-08-17T11:35:56;5.17;;;3.57;;
4873;SDS011;2451;49.970;9.068;2023-08-17T11:38:22;5.05;;;3.47;;
4873;SDS011;2451;49.970;9.068;2023-08-17T11:40:48;8.25;;;4.03;;
4873;SDS011;2451;49.970;9.068;2023-08-17T11:43:14;5.10;;;3.70;;
4873;SDS011;2451;49.970;9.068;2023-08-17T11:45:40;4.22;;;3.53;;
4873;SDS011;2451;49.970;9.068;2023-08-17T11:48:06;5.72;;;3.70;;
4873;SDS011;2451;49.970;9.068;2023-08-17T11:50:32;5.47;;;3.80;;
4873;SDS011;2451;49.970;9.068;2023-08-17T11:53:01;5.07;;;3.85;;
4873;SDS011;2451;49.970;9.068;2023-08-17T11:55:26;5.90;;;4.10;;
4873;SDS011;2451;49.970;9.068;2023-08-17T11:57:52;5.43;;;3.78;;
4873;SDS011;2451;49.970;9.068;2023-08-17T12:00:21;5.22;;;3.80;;
4873;SDS011;2451;49.970;9.068;2023-08-17T12:02:51;5.47;;;3.80;;
4873;SDS011;2451;49.970;9.068;2023-08-17T12:05:23;7.75;;;3.70;;
4873;SDS011;2451;49.970;9.068;2023-08-17T12:07:50;5.28;;;3.75;;
4873;SDS011;2451;49.970;9.068;2023-08-17T12:10:17;4.50;;;3.45;;
4873;SDS011;2451;49.970;9.068;2023-08-17T12:12:44;4.93;;;3.30;;
4873;SDS011;2451;49.970;9.068;2023-08-17T12:15:12;7.07;;;3.50;;
4873;SDS011;2451;49.970;9.068;2023-08-17T12:17:45;6.05;;;3.33;;
4873;SDS011;2451;49.970;9.068;2023-08-17T12:20:18;5.22;;;3.85;;
4873;SDS011;2451;49.970;9.068;2023-08-17T12:22:44;5.70;;;3.35;;
4873;SDS011;2451;49.970;9.068;2023-08-17T12:25:11;6.72;;;3.92;;
4873;SDS011;2451;49.970;9.068;2023-08-17T12:27:36;6.03;;;3.30;;
4873;SDS011;2451;49.970;9.068;2023-08-17T12:30:02;9.13;;;3.90;;
4873;SDS011;2451;49.970;9.068;2023-08-17T12:32:28;6.95;;;3.83;;
4873;SDS011;2451;49.970;9.068;2023-08-17T12:34:54;7.80;;;3.78;;
4873;SDS011;2451;49.970;9.068;2023-08-17T12:37:19;5.57;;;3.60;;
4873;SDS011;2451;49.970;9.068;2023-08-17T12:39:46;5.47;;;3.88;;
4873;SDS011;2451;49.970;9.068;2023-08-17T12:42:12;5.10;;;3.72;;
4873;SDS011;2451;49.970;9.068;2023-08-17T12:44:38;5.88;;;4.00;;
4873;SDS011;2451;49.970;9.068;2023-08-17T12:47:04;6.57;;;4.00;;
4873;SDS011;2451;49.970;9.068;2023-08-17T12:49:29;7.10;;;4.10;;
4873;SDS011;2451;49.970;9.068;2023-08-17T12:51:55;9.73;;;4.35;;
4873;SDS011;2451;49.970;9.068;2023-08-17T12:54:20;6.15;;;4.03;;
4873;SDS011;2451;49.970;9.068;2023-08-17T12:56:46;5.22;;;4.05;;
4873;SDS011;2451;49.970;9.068;2023-08-17T12:59:12;7.05;;;4.40;;
4873;SDS011;2451;49.970;9.068;2023-08-17T13:01:37;6.25;;;4.18;;
4873;SDS011;2451;49.970;9.068;2023-08-17T13:04:04;5.38;;;3.95;;
4873;SDS011;2451;49.970;9.068;2023-08-17T13:06:30;6.30;;;4.50;;
4873;SDS011;2451;49.970;9.068;2023-08-17T13:08:55;7.80;;;4.03;;
4873;SDS011;2451;49.970;9.068;2023-08-17T13:11:21;5.70;;;3.70;;
4873;SDS011;2451;49.970;9.068;2023-08-17T13:13:46;5.88;;;4.30;;
4873;SDS011;2451;49.970;9.068;2023-08-17T13:16:12;6.70;;;4.07;;
4873;SDS011;2451;49.970;9.068;2023-08-17T13:18:38;6.78;;;3.67;;
4873;SDS011;2451;49.970;9.068;2023-08-17T13:21:03;6.88;;;3.75;;
4873;SDS011;2451;49.970;9.068;2023-08-17T13:23:29;6.55;;;3.85;;
4873;SDS011;2451;49.970;9.068;2023-08-17T13:25:54;7.20;;;3.88;;
4873;SDS011;2451;49.970;9.068;2023-08-17T13:28:20;5.47;;;3.60;;
4873;SDS011;2451;49.970;9.068;2023-08-17T13:30:45;5.43;;;3.53;;
4873;SDS011;2451;49.970;9.068;2023-08-17T13:33:11;5.03;;;3.22;;
4873;SDS011;2451;49.970;9.068;2023-08-17T13:35:37;5.35;;;3.47;;
4873;SDS011;2451;49.970;9.068;2023-08-17T13:38:03;5.80;;;3.65;;
4873;SDS011;2451;49.970;9.068;2023-08-17T13:40:30;10.45;;;3.60;;
4873;SDS011;2451;49.970;9.068;2023-08-17T13:42:56;5.35;;;3.58;;
4873;SDS011;2451;49.970;9.068;2023-08-17T13:45:23;7.50;;;3.30;;
4873;SDS011;2451;49.970;9.068;2023-08-17T13:47:49;5.35;;;3.60;;
4873;SDS011;2451;49.970;9.068;2023-08-17T13:50:14;6.07;;;3.28;;
4873;SDS011;2451;49.970;9.068;2023-08-17T13:52:40;5.75;;;3.35;;
4873;SDS011;2451;49.970;9.068;2023-08-17T13:55:06;7.57;;;3.63;;
4873;SDS011;2451;49.970;9.068;2023-08-17T13:57:32;4.63;;;3.10;;
4873;SDS011;2451;49.970;9.068;2023-08-17T13:59:57;6.15;;;3.33;;
4873;SDS011;2451;49.970;9.068;2023-08-17T14:02:23;14.93;;;3.63;;
4873;SDS011;2451;49.970;9.068;2023-08-17T14:04:48;5.28;;;3.67;;
4873;SDS011;2451;49.970;9.068;2023-08-17T14:07:14;7.32;;;3.60;;
4873;SDS011;2451;49.970;9.068;2023-08-17T14:09:39;6.97;;;3.50;;
4873;SDS011;2451;49.970;9.068;2023-08-17T14:12:05;5.70;;;3.63;;
4873;SDS011;2451;49.970;9.068;2023-08-17T14:14:31;6.30;;;3.50;;
4873;SDS011;2451;49.970;9.068;2023-08-17T14:16:56;6.10;;;3.50;;
4873;SDS011;2451;49.970;9.068;2023-08-17T14:19:22;4.40;;;3.20;;
4873;SDS011;2451;49.970;9.068;2023-08-17T14:21:48;4.75;;;3.28;;
4873;SDS011;2451;49.970;9.068;2023-08-17T14:24:14;4.53;;;3.33;;
4873;SDS011;2451;49.970;9.068;2023-08-17T14:26:39;4.18;;;3.10;;
4873;SDS011;2451;49.970;9.068;2023-08-17T14:29:05;3.65;;;3.20;;
4873;SDS011;2451;49.970;9.068;2023-08-17T14:31:30;4.60;;;3.28;;
4873;SDS011;2451;49.970;9.068;2023-08-17T14:33:56;4.57;;;2.90;;
4873;SDS011;2451;49.970;9.068;2023-08-17T14:36:21;5.47;;;2.92;;
4873;SDS011;2451;49.970;9.068;2023-08-17T14:38:47;3.97;;;2.95;;
4873;SDS011;2451;49.970;9.068;2023-08-17T14:41:12;6.50;;;3.40;;
4873;SDS011;2451;49.970;9.068;2023-08-17T14:43:38;5.57;;;2.90;;
4873;SDS011;2451;49.970;9.068;2023-08-17T14:46:04;6.28;;;3.13;;
4873;SDS011;2451;49.970;9.068;2023-08-17T14:48:30;4.43;;;3.20;;
4873;SDS011;2451;49.970;9.068;2023-08-17T14:50:55;3.90;;;2.85;;
4873;SDS011;2451;49.970;9.068;2023-08-17T14:53:21;4.38;;;2.65;;
4873;SDS011;2451;49.970;9.068;2023-08-17T14:55:46;6.13;;;3.00;;
4873;SDS011;2451;49.970;9.068;2023-08-17T14:58:12;4.45;;;2.90;;
4873;SDS011;2451;49.970;9.068;2023-08-17T15:00:38;4.75;;;2.58;;
4873;SDS011;2451;49.970;9.068;2023-08-17T15:03:04;3.90;;;2.70;;
4873;SDS011;2451;49.970;9.068;2023-08-17T15:05:29;4.60;;;2.85;;
4873;SDS011;2451;49.970;9.068;2023-08-17T15:07:56;4.57;;;2.83;;
4873;SDS011;2451;49.970;9.068;2023-08-17T15:10:22;3.72;;;2.88;;
4873;SDS011;2451;49.970;9.068;2023-08-17T15:12:47;5.05;;;3.00;;
4873;SDS011;2451;49.970;9.068;2023-08-17T15:15:13;4.63;;;3.05;;